sensor_id;sensor_type;location;lat;lon;timestamp;P1;durP1;ratioP1;P2;durP2;ratioP2
49193;SDS011;35029;50.804;12.866;2023-07-20T00:00:48;7.10;;;4.95;;
49193;SDS011;35029;50.804;12.866;2023-07-20T00:03:18;6.40;;;4.70;;
49193;SDS011;35029;50.804;12.866;2023-07-20T00:05:48;8.63;;;5.32;;
49193;SDS011;35029;50.804;12.866;2023-07-20T00:08:14;9.48;;;5.43;;
49193;SDS011;35029;50.804;12.866;2023-07-20T00:10:41;6.38;;;4.03;;
49193;SDS011;35029;50.804;12.866;2023-07-20T00:13:07;6.88;;;4.55;;
49193;SDS011;35029;50.804;12.866;2023-07-20T00:15:33;7.25;;;4.57;;
49193;SDS011;35029;50.804;12.866;2023-07-20T00:17:58;8.68;;;5.20;;
49193;SDS011;35029;50.804;12.866;2023-07-20T00:20:24;8.68;;;4.32;;
49193;SDS011;35029;50.804;12.866;2023-07-20T00:22:50;6.60;;;4.97;;
49193;SDS011;35029;50.804;12.866;2023-07-20T00:25:16;6.82;;;5.00;;
49193;SDS011;35029;50.804;12.866;2023-07-20T00:27:42;5.72;;;4.53;;
49193;SDS011;35029;50.804;12.866;2023-07-20T00:30:08;8.73;;;4.78;;
49193;SDS011;35029;50.804;12.866;2023-07-20T00:32:34;6.30;;;5.15;;
49193;SDS011;35029;50.804;12.866;2023-07-20T00:35:00;6.70;;;5.03;;
49193;SDS011;35029;50.804;12.866;2023-07-20T00:37:25;8.60;;;4.95;;
49193;SDS011;35029;50.804;12.866;2023-07-20T00:39:51;10.23;;;5.43;;
49193;SDS011;35029;50.804;12.866;2023-07-20T00:42:17;7.10;;;4.65;;
49193;SDS011;35029;50.804;12.866;2023-07-20T00:44:44;8.32;;;5.47;;
49193;SDS011;35029;50.804;12.866;2023-07-20T00:47:09;7.80;;;5.13;;
49193;SDS011;35029;50.804;12.866;2023-07-20T00:49:35;6.30;;;4.85;;
49193;SDS011;35029;50.804;12.866;2023-07-20T00:52:03;8.73;;;5.40;;
49193;SDS011;35029;50.804;12.866;2023-07-20T00:54:31;8.73;;;5.47;;
49193;SDS011;35029;50.804;12.866;2023-07-20T00:56:57;8.48;;;5.13;;
49193;SDS011;35029;50.804;12.866;2023-07-20T00:59:24;11.25;;;5.55;;
49193;SDS011;35029;50.804;12.866;2023-07-20T01:01:49;7.45;;;4.60;;
49193;SDS011;35029;50.804;12.866;2023-07-20T01:04:15;7.30;;;4.63;;
49193;SDS011;35029;50.804;12.866;2023-07-20T01:06:58;6.18;;;4.63;;
49193;SDS011;35029;50.804;12.866;2023-07-20T01:09:42;14.75;;;5.78;;
49193;SDS011;35029;50.804;12.866;2023-07-20T01:12:25;9.52;;;5.63;;
49193;SDS011;35029;50.804;12.866;2023-07-20T01:14:55;15.50;;;5.43;;
49193;SDS011;35029;50.804;12.866;2023-07-20T01:17:21;7.80;;;5.53;;
49193;SDS011;35029;50.804;12.866;2023-07-20T01:19:49;7.30;;;5.95;;
49193;SDS011;35029;50.804;12.866;2023-07-20T01:25:15;10.40;;;5.63;;
49193;SDS011;35029;50.804;12.866;2023-07-20T01:32:53;12.43;;;5.78;;
49193;SDS011;35029;50.804;12.866;2023-07-20T01:35:21;8.65;;;5.75;;
49193;SDS011;35029;50.804;12.866;2023-07-20T01:37:52;10.18;;;5.68;;
49193;SDS011;35029;50.804;12.866;2023-07-20T01:40:19;7.00;;;5.60;;
49193;SDS011;35029;50.804;12.866;2023-07-20T01:42:46;8.32;;;5.28;;
49193;SDS011;35029;50.804;12.866;2023-07-20T01:45:12;11.38;;;6.15;;
49193;SDS011;35029;50.804;12.866;2023-07-20T01:47:38;7.15;;;5.30;;
49193;SDS011;35029;50.804;12.866;2023-07-20T01:50:04;7.63;;;4.55;;
49193;SDS011;35029;50.804;12.866;2023-07-20T01:52:32;8.02;;;5.40;;
49193;SDS011;35029;50.804;12.866;2023-07-20T01:54:57;9.45;;;5.72;;
49193;SDS011;35029;50.804;12.866;2023-07-20T01:57:23;11.23;;;6.35;;
49193;SDS011;35029;50.804;12.866;2023-07-20T01:59:48;8.35;;;5.65;;
49193;SDS011;35029;50.804;12.866;2023-07-20T02:02:14;6.15;;;5.55;;
49193;SDS011;35029;50.804;12.866;2023-07-20T02:04:40;9.18;;;6.50;;
49193;SDS011;35029;50.804;12.866;2023-07-20T02:07:05;6.55;;;5.38;;
49193;SDS011;35029;50.804;12.866;2023-07-20T02:09:31;10.02;;;6.43;;
49193;SDS011;35029;50.804;12.866;2023-07-20T02:11:57;7.80;;;5.35;;
49193;SDS011;35029;50.804;12.866;2023-07-20T02:14:22;14.27;;;6.32;;
49193;SDS011;35029;50.804;12.866;2023-07-20T02:16:48;11.77;;;6.00;;
49193;SDS011;35029;50.804;12.866;2023-07-20T02:19:19;9.57;;;5.95;;
49193;SDS011;35029;50.804;12.866;2023-07-20T02:21:45;6.97;;;5.60;;
49193;SDS011;35029;50.804;12.866;2023-07-20T02:24:11;8.77;;;5.63;;
49193;SDS011;35029;50.804;12.866;2023-07-20T02:26:38;9.00;;;5.97;;
49193;SDS011;35029;50.804;12.866;2023-07-20T02:29:03;15.63;;;5.90;;
49193;SDS011;35029;50.804;12.866;2023-07-20T02:31:30;6.20;;;5.07;;
49193;SDS011;35029;50.804;12.866;2023-07-20T02:33:56;11.75;;;6.18;;
49193;SDS011;35029;50.804;12.866;2023-07-20T02:36:21;8.52;;;5.07;;
49193;SDS011;35029;50.804;12.866;2023-07-20T02:38:47;8.40;;;5.10;;
49193;SDS011;35029;50.804;12.866;2023-07-20T02:41:13;10.15;;;5.35;;
49193;SDS011;35029;50.804;12.866;2023-07-20T02:43:39;17.27;;;5.88;;
49193;SDS011;35029;50.804;12.866;2023-07-20T02:46:04;15.45;;;5.05;;
49193;SDS011;35029;50.804;12.866;2023-07-20T02:48:31;10.85;;;5.10;;
49193;SDS011;35029;50.804;12.866;2023-07-20T02:50:57;9.70;;;5.13;;
49193;SDS011;35029;50.804;12.866;2023-07-20T02:53:22;6.65;;;4.85;;
49193;SDS011;35029;50.804;12.866;2023-07-20T02:55:48;12.57;;;5.20;;
49193;SDS011;35029;50.804;12.866;2023-07-20T02:58:13;15.25;;;5.85;;
49193;SDS011;35029;50.804;12.866;2023-07-20T03:00:39;10.65;;;4.63;;
49193;SDS011;35029;50.804;12.866;2023-07-20T03:03:04;11.82;;;4.43;;
49193;SDS011;35029;50.804;12.866;2023-07-20T03:05:35;11.90;;;5.33;;
49193;SDS011;35029;50.804;12.866;2023-07-20T03:08:03;13.10;;;5.03;;
49193;SDS011;35029;50.804;12.866;2023-07-20T03:10:31;10.80;;;4.97;;
49193;SDS011;35029;50.804;12.866;2023-07-20T03:12:57;12.38;;;5.10;;
49193;SDS011;35029;50.804;12.866;2023-07-20T03:15:24;6.30;;;4.22;;
49193;SDS011;35029;50.804;12.866;2023-07-20T03:17:50;6.20;;;4.68;;
49193;SDS011;35029;50.804;12.866;2023-07-20T03:20:17;11.48;;;4.68;;
49193;SDS011;35029;50.804;12.866;2023-07-20T03:22:42;12.35;;;6.10;;
49193;SDS011;35029;50.804;12.866;2023-07-20T03:25:08;9.85;;;5.70;;
49193;SDS011;35029;50.804;12.866;2023-07-20T03:27:34;10.13;;;3.80;;
49193;SDS011;35029;50.804;12.866;2023-07-20T03:30:01;12.60;;;5.45;;
49193;SDS011;35029;50.804;12.866;2023-07-20T03:32:27;11.18;;;4.97;;
49193;SDS011;35029;50.804;12.866;2023-07-20T03:34:53;11.25;;;5.32;;
49193;SDS011;35029;50.804;12.866;2023-07-20T03:37:18;8.38;;;4.63;;
49193;SDS011;35029;50.804;12.866;2023-07-20T03:39:44;10.13;;;4.95;;
49193;SDS011;35029;50.804;12.866;2023-07-20T03:42:10;7.53;;;4.72;;
49193;SDS011;35029;50.804;12.866;2023-07-20T03:44:35;11.25;;;5.22;;
49193;SDS011;35029;50.804;12.866;2023-07-20T03:47:01;8.88;;;5.43;;
49193;SDS011;35029;50.804;12.866;2023-07-20T03:49:26;8.07;;;5.70;;
49193;SDS011;35029;50.804;12.866;2023-07-20T03:51:52;7.97;;;4.38;;
49193;SDS011;35029;50.804;12.866;2023-07-20T03:54:18;8.02;;;4.63;;
49193;SDS011;35029;50.804;12.866;2023-07-20T03:56:44;8.32;;;4.72;;
49193;SDS011;35029;50.804;12.866;2023-07-20T03:59:10;9.40;;;5.13;;
49193;SDS011;35029;50.804;12.866;2023-07-20T04:01:35;9.50;;;5.60;;
49193;SDS011;35029;50.804;12.866;2023-07-20T04:04:06;9.95;;;5.50;;
49193;SDS011;35029;50.804;12.866;2023-07-20T04:06:33;10.23;;;5.50;;
49193;SDS011;35029;50.804;12.866;2023-07-20T04:08:58;9.98;;;5.22;;
49193;SDS011;35029;50.804;12.866;2023-07-20T04:11:24;11.07;;;4.75;;
49193;SDS011;35029;50.804;12.866;2023-07-20T04:13:50;8.52;;;4.82;;
49193;SDS011;35029;50.804;12.866;2023-07-20T04:16:16;11.25;;;5.25;;
49193;SDS011;35029;50.804;12.866;2023-07-20T04:18:42;9.38;;;5.90;;
49193;SDS011;35029;50.804;12.866;2023-07-20T04:21:08;9.60;;;6.20;;
49193;SDS011;35029;50.804;12.866;2023-07-20T04:23:34;8.13;;;4.03;;
49193;SDS011;35029;50.804;12.866;2023-07-20T04:26:01;9.20;;;4.43;;
49193;SDS011;35029;50.804;12.866;2023-07-20T04:28:27;10.75;;;4.97;;
49193;SDS011;35029;50.804;12.866;2023-07-20T04:30:53;10.35;;;5.40;;
49193;SDS011;35029;50.804;12.866;2023-07-20T04:33:19;6.38;;;5.05;;
49193;SDS011;35029;50.804;12.866;2023-07-20T04:38:15;6.95;;;4.93;;
49193;SDS011;35029;50.804;12.866;2023-07-20T04:40:47;8.75;;;5.20;;
49193;SDS011;35029;50.804;12.866;2023-07-20T04:43:15;9.15;;;4.82;;
49193;SDS011;35029;50.804;12.866;2023-07-20T04:45:42;6.25;;;5.00;;
49193;SDS011;35029;50.804;12.866;2023-07-20T04:48:12;7.68;;;5.07;;
49193;SDS011;35029;50.804;12.866;2023-07-20T04:50:47;11.10;;;5.25;;
49193;SDS011;35029;50.804;12.866;2023-07-20T04:53:13;7.88;;;5.20;;
49193;SDS011;35029;50.804;12.866;2023-07-20T04:55:39;9.02;;;5.63;;
49193;SDS011;35029;50.804;12.866;2023-07-20T04:58:06;10.80;;;6.07;;
49193;SDS011;35029;50.804;12.866;2023-07-20T05:00:34;9.77;;;5.97;;
49193;SDS011;35029;50.804;12.866;2023-07-20T05:03:00;7.35;;;5.00;;
49193;SDS011;35029;50.804;12.866;2023-07-20T05:05:25;12.35;;;5.95;;
49193;SDS011;35029;50.804;12.866;2023-07-20T05:07:51;8.02;;;5.72;;
49193;SDS011;35029;50.804;12.866;2023-07-20T05:10:17;6.25;;;5.22;;
49193;SDS011;35029;50.804;12.866;2023-07-20T05:12:43;5.57;;;4.82;;
49193;SDS011;35029;50.804;12.866;2023-07-20T05:15:09;7.30;;;5.72;;
49193;SDS011;35029;50.804;12.866;2023-07-20T05:17:37;9.65;;;5.53;;
49193;SDS011;35029;50.804;12.866;2023-07-20T05:20:02;8.23;;;5.03;;
49193;SDS011;35029;50.804;12.866;2023-07-20T05:22:30;12.35;;;5.10;;
49193;SDS011;35029;50.804;12.866;2023-07-20T05:24:55;7.95;;;5.55;;
49193;SDS011;35029;50.804;12.866;2023-07-20T05:27:21;11.00;;;5.47;;
49193;SDS011;35029;50.804;12.866;2023-07-20T05:29:47;8.80;;;6.25;;
49193;SDS011;35029;50.804;12.866;2023-07-20T05:32:13;12.95;;;6.38;;
49193;SDS011;35029;50.804;12.866;2023-07-20T05:34:40;9.02;;;5.00;;
49193;SDS011;35029;50.804;12.866;2023-07-20T05:37:05;11.55;;;5.68;;
49193;SDS011;35029;50.804;12.866;2023-07-20T05:39:34;6.28;;;5.25;;
49193;SDS011;35029;50.804;12.866;2023-07-20T05:41:59;7.43;;;5.90;;
49193;SDS011;35029;50.804;12.866;2023-07-20T05:44:25;13.93;;;5.78;;
49193;SDS011;35029;50.804;12.866;2023-07-20T05:46:51;9.43;;;5.30;;
49193;SDS011;35029;50.804;12.866;2023-07-20T05:49:16;6.88;;;4.63;;
49193;SDS011;35029;50.804;12.866;2023-07-20T05:51:42;4.57;;;3.10;;
49193;SDS011;35029;50.804;12.866;2023-07-20T05:54:07;3.53;;;2.47;;
49193;SDS011;35029;50.804;12.866;2023-07-20T05:56:33;4.20;;;2.65;;
49193;SDS011;35029;50.804;12.866;2023-07-20T05:58:59;2.78;;;2.03;;
49193;SDS011;35029;50.804;12.866;2023-07-20T06:01:26;1.75;;;1.60;;
49193;SDS011;35029;50.804;12.866;2023-07-20T06:03:53;2.60;;;1.58;;
49193;SDS011;35029;50.804;12.866;2023-07-20T06:06:19;3.35;;;1.70;;
49193;SDS011;35029;50.804;12.866;2023-07-20T06:08:45;3.38;;;1.58;;
49193;SDS011;35029;50.804;12.866;2023-07-20T06:11:10;3.08;;;1.83;;
49193;SDS011;35029;50.804;12.866;2023-07-20T06:13:36;12.75;;;9.32;;
49193;SDS011;35029;50.804;12.866;2023-07-20T06:16:02;13.73;;;9.20;;
49193;SDS011;35029;50.804;12.866;2023-07-20T06:18:28;31.75;;;22.25;;
49193;SDS011;35029;50.804;12.866;2023-07-20T06:20:55;19.35;;;11.93;;
49193;SDS011;35029;50.804;12.866;2023-07-20T06:23:21;7.13;;;5.40;;
49193;SDS011;35029;50.804;12.866;2023-07-20T06:25:47;7.10;;;4.03;;
49193;SDS011;35029;50.804;12.866;2023-07-20T06:28:13;8.23;;;2.38;;
49193;SDS011;35029;50.804;12.866;2023-07-20T06:30:38;3.30;;;1.95;;
49193;SDS011;35029;50.804;12.866;2023-07-20T06:33:05;2.97;;;1.50;;
49193;SDS011;35029;50.804;12.866;2023-07-20T06:35:30;1.95;;;1.60;;
49193;SDS011;35029;50.804;12.866;2023-07-20T06:37:56;2.42;;;1.45;;
49193;SDS011;35029;50.804;12.866;2023-07-20T06:40:22;2.63;;;1.88;;
49193;SDS011;35029;50.804;12.866;2023-07-20T06:42:48;2.20;;;1.48;;
49193;SDS011;35029;50.804;12.866;2023-07-20T06:45:13;4.03;;;2.00;;
49193;SDS011;35029;50.804;12.866;2023-07-20T06:47:40;3.78;;;2.08;;
49193;SDS011;35029;50.804;12.866;2023-07-20T06:50:09;2.03;;;1.80;;
49193;SDS011;35029;50.804;12.866;2023-07-20T06:52:35;2.25;;;1.30;;
49193;SDS011;35029;50.804;12.866;2023-07-20T06:55:01;3.92;;;1.67;;
49193;SDS011;35029;50.804;12.866;2023-07-20T06:57:28;4.47;;;1.42;;
49193;SDS011;35029;50.804;12.866;2023-07-20T06:59:53;2.75;;;1.50;;
49193;SDS011;35029;50.804;12.866;2023-07-20T07:02:19;3.78;;;1.92;;
49193;SDS011;35029;50.804;12.866;2023-07-20T07:04:45;3.33;;;2.10;;
49193;SDS011;35029;50.804;12.866;2023-07-20T07:07:14;5.00;;;3.00;;
49193;SDS011;35029;50.804;12.866;2023-07-20T07:09:40;2.40;;;2.20;;
49193;SDS011;35029;50.804;12.866;2023-07-20T07:12:06;4.22;;;2.65;;
49193;SDS011;35029;50.804;12.866;2023-07-20T07:14:33;4.00;;;3.60;;
49193;SDS011;35029;50.804;12.866;2023-07-20T07:16:58;3.83;;;3.53;;
49193;SDS011;35029;50.804;12.866;2023-07-20T07:19:24;4.18;;;3.78;;
49193;SDS011;35029;50.804;12.866;2023-07-20T07:21:49;7.55;;;4.00;;
49193;SDS011;35029;50.804;12.866;2023-07-20T07:24:16;7.30;;;3.72;;
49193;SDS011;35029;50.804;12.866;2023-07-20T07:26:42;4.57;;;4.05;;
49193;SDS011;35029;50.804;12.866;2023-07-20T07:29:07;4.45;;;3.95;;
49193;SDS011;35029;50.804;12.866;2023-07-20T07:31:34;3.80;;;3.50;;
49193;SDS011;35029;50.804;12.866;2023-07-20T07:34:01;6.63;;;4.88;;
49193;SDS011;35029;50.804;12.866;2023-07-20T07:36:27;5.43;;;4.93;;
49193;SDS011;35029;50.804;12.866;2023-07-20T07:38:53;7.40;;;5.60;;
49193;SDS011;35029;50.804;12.866;2023-07-20T07:41:18;9.38;;;5.55;;
49193;SDS011;35029;50.804;12.866;2023-07-20T07:43:44;7.47;;;4.80;;
49193;SDS011;35029;50.804;12.866;2023-07-20T07:46:09;6.25;;;5.40;;
49193;SDS011;35029;50.804;12.866;2023-07-20T07:48:36;6.25;;;5.65;;
49193;SDS011;35029;50.804;12.866;2023-07-20T07:51:01;8.10;;;5.97;;
49193;SDS011;35029;50.804;12.866;2023-07-20T07:53:27;8.27;;;5.28;;
49193;SDS011;35029;50.804;12.866;2023-07-20T07:55:53;8.43;;;6.03;;
49193;SDS011;35029;50.804;12.866;2023-07-20T07:58:18;7.65;;;6.47;;
49193;SDS011;35029;50.804;12.866;2023-07-20T08:00:44;7.38;;;6.45;;
49193;SDS011;35029;50.804;12.866;2023-07-20T08:03:10;7.22;;;6.32;;
49193;SDS011;35029;50.804;12.866;2023-07-20T08:05:35;7.90;;;7.10;;
49193;SDS011;35029;50.804;12.866;2023-07-20T08:08:02;8.07;;;6.72;;
49193;SDS011;35029;50.804;12.866;2023-07-20T08:10:29;7.13;;;6.43;;
49193;SDS011;35029;50.804;12.866;2023-07-20T08:12:55;7.45;;;6.68;;
49193;SDS011;35029;50.804;12.866;2023-07-20T08:15:20;10.50;;;7.40;;
49193;SDS011;35029;50.804;12.866;2023-07-20T08:17:46;8.18;;;6.57;;
49193;SDS011;35029;50.804;12.866;2023-07-20T08:20:13;12.88;;;7.43;;
49193;SDS011;35029;50.804;12.866;2023-07-20T08:22:41;13.27;;;6.93;;
49193;SDS011;35029;50.804;12.866;2023-07-20T08:25:07;9.77;;;7.72;;
49193;SDS011;35029;50.804;12.866;2023-07-20T08:27:33;10.82;;;7.78;;
49193;SDS011;35029;50.804;12.866;2023-07-20T08:29:59;8.32;;;7.32;;
49193;SDS011;35029;50.804;12.866;2023-07-20T08:32:25;7.63;;;6.82;;
49193;SDS011;35029;50.804;12.866;2023-07-20T08:34:51;7.10;;;6.35;;
49193;SDS011;35029;50.804;12.866;2023-07-20T08:37:17;7.53;;;6.65;;
49193;SDS011;35029;50.804;12.866;2023-07-20T08:39:43;9.88;;;6.63;;
49193;SDS011;35029;50.804;12.866;2023-07-20T08:42:09;11.20;;;7.20;;
49193;SDS011;35029;50.804;12.866;2023-07-20T08:44:38;9.15;;;7.10;;
49193;SDS011;35029;50.804;12.866;2023-07-20T08:47:05;9.20;;;6.38;;
49193;SDS011;35029;50.804;12.866;2023-07-20T08:49:32;8.85;;;6.68;;
49193;SDS011;35029;50.804;12.866;2023-07-20T08:51:59;7.05;;;5.60;;
49193;SDS011;35029;50.804;12.866;2023-07-20T08:54:26;9.70;;;6.43;;
49193;SDS011;35029;50.804;12.866;2023-07-20T08:56:56;8.37;;;5.70;;
49193;SDS011;35029;50.804;12.866;2023-07-20T08:59:23;9.45;;;6.40;;
49193;SDS011;35029;50.804;12.866;2023-07-20T09:01:50;6.80;;;4.38;;
49193;SDS011;35029;50.804;12.866;2023-07-20T09:04:17;7.93;;;4.72;;
49193;SDS011;35029;50.804;12.866;2023-07-20T09:06:43;6.20;;;3.50;;
49193;SDS011;35029;50.804;12.866;2023-07-20T09:09:10;5.93;;;3.45;;
49193;SDS011;35029;50.804;12.866;2023-07-20T09:11:36;5.47;;;3.60;;
49193;SDS011;35029;50.804;12.866;2023-07-20T09:14:08;4.13;;;3.30;;
49193;SDS011;35029;50.804;12.866;2023-07-20T09:16:48;4.55;;;3.28;;
49193;SDS011;35029;50.804;12.866;2023-07-20T09:19:17;3.75;;;2.67;;
49193;SDS011;35029;50.804;12.866;2023-07-20T09:21:49;4.90;;;3.22;;
49193;SDS011;35029;50.804;12.866;2023-07-20T09:24:19;5.22;;;2.80;;
49193;SDS011;35029;50.804;12.866;2023-07-20T09:26:46;3.60;;;2.53;;
49193;SDS011;35029;50.804;12.866;2023-07-20T09:29:14;2.97;;;2.70;;
49193;SDS011;35029;50.804;12.866;2023-07-20T09:31:43;4.55;;;2.83;;
49193;SDS011;35029;50.804;12.866;2023-07-20T09:34:25;4.40;;;2.97;;
49193;SDS011;35029;50.804;12.866;2023-07-20T09:36:50;4.28;;;2.83;;
49193;SDS011;35029;50.804;12.866;2023-07-20T09:39:16;8.02;;;3.10;;
49193;SDS011;35029;50.804;12.866;2023-07-20T09:41:42;4.15;;;2.60;;
49193;SDS011;35029;50.804;12.866;2023-07-20T09:44:08;3.95;;;2.30;;
49193;SDS011;35029;50.804;12.866;2023-07-20T09:46:44;8.38;;;3.22;;
49193;SDS011;35029;50.804;12.866;2023-07-20T09:49:12;7.47;;;2.60;;
49193;SDS011;35029;50.804;12.866;2023-07-20T09:51:39;4.13;;;2.47;;
49193;SDS011;35029;50.804;12.866;2023-07-20T09:54:07;3.03;;;2.25;;
49193;SDS011;35029;50.804;12.866;2023-07-20T09:56:33;4.05;;;2.53;;
49193;SDS011;35029;50.804;12.866;2023-07-20T09:59:00;3.55;;;3.05;;
49193;SDS011;35029;50.804;12.866;2023-07-20T10:01:25;3.60;;;2.78;;
49193;SDS011;35029;50.804;12.866;2023-07-20T10:03:53;3.70;;;2.50;;
49193;SDS011;35029;50.804;12.866;2023-07-20T10:06:21;2.90;;;2.63;;
49193;SDS011;35029;50.804;12.866;2023-07-20T10:08:50;4.93;;;2.80;;
49193;SDS011;35029;50.804;12.866;2023-07-20T10:11:18;3.60;;;2.35;;
49193;SDS011;35029;50.804;12.866;2023-07-20T10:13:46;2.50;;;2.30;;
49193;SDS011;35029;50.804;12.866;2023-07-20T10:16:24;3.03;;;2.70;;
49193;SDS011;35029;50.804;12.866;2023-07-20T10:21:37;3.03;;;2.55;;
49193;SDS011;35029;50.804;12.866;2023-07-20T10:24:12;5.18;;;2.20;;
49193;SDS011;35029;50.804;12.866;2023-07-20T10:26:40;3.10;;;2.03;;
49193;SDS011;35029;50.804;12.866;2023-07-20T10:29:06;2.53;;;2.30;;
49193;SDS011;35029;50.804;12.866;2023-07-20T10:31:33;4.78;;;2.30;;
49193;SDS011;35029;50.804;12.866;2023-07-20T10:33:59;4.10;;;1.85;;
49193;SDS011;35029;50.804;12.866;2023-07-20T10:36:26;2.10;;;1.90;;
49193;SDS011;35029;50.804;12.866;2023-07-20T10:38:53;2.10;;;1.90;;
49193;SDS011;35029;50.804;12.866;2023-07-20T10:44:02;4.22;;;2.50;;
49193;SDS011;35029;50.804;12.866;2023-07-20T10:49:07;3.00;;;2.30;;
49193;SDS011;35029;50.804;12.866;2023-07-20T10:51:40;4.70;;;2.80;;
49193;SDS011;35029;50.804;12.866;2023-07-20T10:56:41;3.03;;;2.30;;
49193;SDS011;35029;50.804;12.866;2023-07-20T10:59:17;2.78;;;2.20;;
49193;SDS011;35029;50.804;12.866;2023-07-20T11:01:45;3.70;;;2.10;;
49193;SDS011;35029;50.804;12.866;2023-07-20T11:04:14;2.83;;;2.08;;
49193;SDS011;35029;50.804;12.866;2023-07-20T11:06:45;5.97;;;2.22;;
49193;SDS011;35029;50.804;12.866;2023-07-20T11:09:11;3.42;;;2.47;;
49193;SDS011;35029;50.804;12.866;2023-07-20T11:11:41;3.00;;;2.30;;
49193;SDS011;35029;50.804;12.866;2023-07-20T11:14:20;3.22;;;2.28;;
49193;SDS011;35029;50.804;12.866;2023-07-20T11:16:48;5.18;;;2.67;;
49193;SDS011;35029;50.804;12.866;2023-07-20T11:21:51;5.13;;;2.55;;
49193;SDS011;35029;50.804;12.866;2023-07-20T11:24:18;4.32;;;1.83;;
49193;SDS011;35029;50.804;12.866;2023-07-20T11:26:44;2.92;;;1.95;;
49193;SDS011;35029;50.804;12.866;2023-07-20T11:29:12;3.65;;;1.92;;
49193;SDS011;35029;50.804;12.866;2023-07-20T11:31:38;3.95;;;2.15;;
49193;SDS011;35029;50.804;12.866;2023-07-20T11:34:06;2.20;;;1.88;;
49193;SDS011;35029;50.804;12.866;2023-07-20T11:36:33;3.42;;;2.10;;
49193;SDS011;35029;50.804;12.866;2023-07-20T11:38:59;3.13;;;1.85;;
49193;SDS011;35029;50.804;12.866;2023-07-20T11:41:25;3.08;;;2.10;;
49193;SDS011;35029;50.804;12.866;2023-07-20T11:43:52;1.88;;;1.73;;
49193;SDS011;35029;50.804;12.866;2023-07-20T11:46:18;2.60;;;2.00;;
49193;SDS011;35029;50.804;12.866;2023-07-20T11:48:44;4.47;;;2.38;;
49193;SDS011;35029;50.804;12.866;2023-07-20T11:51:16;5.60;;;4.07;;
49193;SDS011;35029;50.804;12.866;2023-07-20T11:53:43;2.67;;;2.00;;
49193;SDS011;35029;50.804;12.866;2023-07-20T11:56:11;2.28;;;1.90;;
49193;SDS011;35029;50.804;12.866;2023-07-20T11:58:42;5.55;;;2.75;;
49193;SDS011;35029;50.804;12.866;2023-07-20T12:01:09;4.18;;;2.42;;
49193;SDS011;35029;50.804;12.866;2023-07-20T12:03:36;3.50;;;1.50;;
49193;SDS011;35029;50.804;12.866;2023-07-20T12:06:08;3.10;;;1.40;;
49193;SDS011;35029;50.804;12.866;2023-07-20T12:08:35;1.35;;;1.25;;
49193;SDS011;35029;50.804;12.866;2023-07-20T12:11:03;3.60;;;2.22;;
49193;SDS011;35029;50.804;12.866;2023-07-20T12:13:42;15.57;;;3.50;;
49193;SDS011;35029;50.804;12.866;2023-07-20T12:16:15;8.77;;;3.55;;
49193;SDS011;35029;50.804;12.866;2023-07-20T12:18:43;4.22;;;2.60;;
49193;SDS011;35029;50.804;12.866;2023-07-20T12:21:09;4.18;;;2.80;;
49193;SDS011;35029;50.804;12.866;2023-07-20T12:23:39;5.20;;;3.20;;
49193;SDS011;35029;50.804;12.866;2023-07-20T12:26:08;5.88;;;3.10;;
49193;SDS011;35029;50.804;12.866;2023-07-20T12:28:42;7.07;;;4.32;;
49193;SDS011;35029;50.804;12.866;2023-07-20T12:31:08;8.23;;;4.80;;
49193;SDS011;35029;50.804;12.866;2023-07-20T12:33:36;6.78;;;4.57;;
49193;SDS011;35029;50.804;12.866;2023-07-20T12:36:03;4.75;;;3.17;;
49193;SDS011;35029;50.804;12.866;2023-07-20T12:38:30;5.85;;;3.30;;
49193;SDS011;35029;50.804;12.866;2023-07-20T12:40:59;3.97;;;3.22;;
49193;SDS011;35029;50.804;12.866;2023-07-20T12:43:26;3.53;;;3.10;;
49193;SDS011;35029;50.804;12.866;2023-07-20T12:45:52;3.67;;;3.30;;
49193;SDS011;35029;50.804;12.866;2023-07-20T12:48:18;3.20;;;2.90;;
49193;SDS011;35029;50.804;12.866;2023-07-20T12:50:44;4.15;;;2.67;;
49193;SDS011;35029;50.804;12.866;2023-07-20T12:53:09;3.65;;;2.90;;
49193;SDS011;35029;50.804;12.866;2023-07-20T12:55:35;3.25;;;2.92;;
49193;SDS011;35029;50.804;12.866;2023-07-20T12:58:02;3.70;;;3.22;;
49193;SDS011;35029;50.804;12.866;2023-07-20T13:00:27;2.95;;;2.70;;
49193;SDS011;35029;50.804;12.866;2023-07-20T13:02:53;4.32;;;2.97;;
49193;SDS011;35029;50.804;12.866;2023-07-20T13:05:19;6.65;;;3.22;;
49193;SDS011;35029;50.804;12.866;2023-07-20T13:07:44;4.13;;;3.50;;
49193;SDS011;35029;50.804;12.866;2023-07-20T13:10:12;4.43;;;3.25;;
49193;SDS011;35029;50.804;12.866;2023-07-20T13:12:38;2.90;;;2.70;;
49193;SDS011;35029;50.804;12.866;2023-07-20T13:15:04;3.28;;;2.97;;
49193;SDS011;35029;50.804;12.866;2023-07-20T13:17:32;3.17;;;2.92;;
49193;SDS011;35029;50.804;12.866;2023-07-20T13:19:59;2.85;;;2.65;;
49193;SDS011;35029;50.804;12.866;2023-07-20T13:22:24;2.40;;;2.20;;
49193;SDS011;35029;50.804;12.866;2023-07-20T13:24:50;2.38;;;2.17;;
49193;SDS011;35029;50.804;12.866;2023-07-20T13:27:16;2.33;;;2.13;;
49193;SDS011;35029;50.804;12.866;2023-07-20T13:29:44;2.60;;;2.40;;
49193;SDS011;35029;50.804;12.866;2023-07-20T13:32:12;2.50;;;2.17;;
49193;SDS011;35029;50.804;12.866;2023-07-20T13:34:40;4.03;;;1.90;;
49193;SDS011;35029;50.804;12.866;2023-07-20T13:37:13;4.10;;;2.22;;
49193;SDS011;35029;50.804;12.866;2023-07-20T13:39:39;2.63;;;2.42;;
49193;SDS011;35029;50.804;12.866;2023-07-20T13:42:07;3.90;;;2.78;;
49193;SDS011;35029;50.804;12.866;2023-07-20T13:44:35;2.67;;;2.33;;
49193;SDS011;35029;50.804;12.866;2023-07-20T13:47:07;2.60;;;2.35;;
49193;SDS011;35029;50.804;12.866;2023-07-20T13:49:32;3.28;;;2.17;;
49193;SDS011;35029;50.804;12.866;2023-07-20T13:51:58;2.60;;;2.35;;
49193;SDS011;35029;50.804;12.866;2023-07-20T13:54:25;2.20;;;1.92;;
49193;SDS011;35029;50.804;12.866;2023-07-20T13:56:50;2.35;;;2.15;;
49193;SDS011;35029;50.804;12.866;2023-07-20T14:01:58;3.28;;;2.97;;
49193;SDS011;35029;50.804;12.866;2023-07-20T14:04:24;3.60;;;2.60;;
49193;SDS011;35029;50.804;12.866;2023-07-20T14:06:51;2.83;;;2.20;;
49193;SDS011;35029;50.804;12.866;2023-07-20T14:09:16;2.00;;;1.90;;
49193;SDS011;35029;50.804;12.866;2023-07-20T14:11:42;2.75;;;2.13;;
49193;SDS011;35029;50.804;12.866;2023-07-20T14:14:08;2.97;;;1.73;;
49193;SDS011;35029;50.804;12.866;2023-07-20T14:16:33;3.08;;;1.90;;
49193;SDS011;35029;50.804;12.866;2023-07-20T14:18:59;1.98;;;1.88;;
49193;SDS011;35029;50.804;12.866;2023-07-20T14:21:24;1.88;;;1.73;;
49193;SDS011;35029;50.804;12.866;2023-07-20T14:23:51;2.10;;;1.67;;
49193;SDS011;35029;50.804;12.866;2023-07-20T14:26:20;5.32;;;1.90;;
49193;SDS011;35029;50.804;12.866;2023-07-20T14:28:46;2.33;;;1.95;;
49193;SDS011;35029;50.804;12.866;2023-07-20T14:31:12;2.35;;;1.40;;
49193;SDS011;35029;50.804;12.866;2023-07-20T14:33:38;1.90;;;1.70;;
49193;SDS011;35029;50.804;12.866;2023-07-20T14:36:04;2.42;;;1.52;;
49193;SDS011;35029;50.804;12.866;2023-07-20T14:38:30;2.00;;;1.80;;
49193;SDS011;35029;50.804;12.866;2023-07-20T14:40:57;4.47;;;2.00;;
49193;SDS011;35029;50.804;12.866;2023-07-20T14:43:22;2.75;;;1.60;;
49193;SDS011;35029;50.804;12.866;2023-07-20T14:45:48;2.88;;;1.73;;
49193;SDS011;35029;50.804;12.866;2023-07-20T14:48:14;1.90;;;1.60;;
49193;SDS011;35029;50.804;12.866;2023-07-20T14:50:39;7.07;;;2.65;;
49193;SDS011;35029;50.804;12.866;2023-07-20T14:53:05;1.90;;;1.70;;
49193;SDS011;35029;50.804;12.866;2023-07-20T14:55:32;1.77;;;1.50;;
49193;SDS011;35029;50.804;12.866;2023-07-20T14:57:59;2.00;;;1.80;;